Cohasset, Minnesota
Current Conditions -  °F | °C
As of 5:55 AM on Sunday 21 Dec 2014 (Local Time) from KGPZ Reporting Station
Overcast Overcast  
Wind Chill: 17°   Ceiling: 500
Heat Index: 28°   Visibility: 5mi
Dew Point: 27°   Wind: 15mph
Humidity: 93%   Direction: 150°SSE
Pressure: 29.84"   Gusts: 21mph
Location:  47.26°N, 93.62°W
Report Text: KGPZ 211155Z AUTO 15013G18KT 5SM OVC005 M02/M03 A2984 RMK AO1 11020 21030 57024
Loading
Personal Weather Stations






























Interactive Weather Map New forecast layout! Learn more

10-Day Weather Forecast

Advertisements
Track Severe Weather on mobile